createdAt,value
2019-05-01T00:02:02.874Z,76.06
2019-05-01T00:04:39.039Z,75.89
2019-05-01T00:07:24.171Z,75.83
2019-05-01T00:09:55.622Z,75.94
2019-05-01T00:12:27.214Z,75.77
2019-05-01T00:14:58.577Z,75.82
2019-05-01T00:17:29.945Z,76.17
2019-05-01T00:20:01.358Z,76.35
2019-05-01T00:22:32.766Z,76.69
2019-05-01T00:25:04.623Z,76.69
2019-05-01T00:27:35.959Z,77.13
2019-05-01T00:30:08.935Z,76.85
2019-05-01T00:32:40.288Z,77.19
2019-05-01T00:35:11.255Z,77.00
2019-05-01T00:37:42.498Z,77.36
2019-05-01T00:40:13.874Z,77.31
2019-05-01T00:42:45.309Z,77.34
2019-05-01T00:45:16.716Z,77.08
2019-05-01T00:47:48.178Z,77.27
2019-05-01T00:50:19.500Z,77.46
2019-05-01T00:52:50.938Z,77.50
2019-05-01T00:55:39.300Z,77.67
2019-05-01T00:58:22.425Z,77.73
2019-05-01T01:01:11.518Z,77.84
2019-05-01T01:03:43.105Z,77.94
2019-05-01T01:06:14.470Z,78.25
2019-05-01T01:08:45.807Z,78.03
2019-05-01T01:11:17.118Z,78.06
2019-05-01T01:13:48.627Z,78.11
2019-05-01T01:16:20.031Z,77.88
2019-05-01T01:18:50.862Z,77.95
2019-05-01T01:21:21.955Z,78.10
2019-05-01T01:23:53.245Z,78.07
2019-05-01T01:26:24.807Z,77.85
2019-05-01T01:28:56.231Z,77.70
2019-05-01T01:31:27.721Z,77.83
2019-05-01T01:33:59.088Z,78.01
2019-05-01T01:36:30.618Z,78.38
2019-05-01T01:39:02.064Z,78.86
2019-05-01T01:41:35.695Z,78.67
2019-05-01T01:44:08.744Z,79.40
2019-05-01T01:46:41.619Z,79.15
2019-05-01T01:49:12.979Z,79.32
2019-05-01T01:51:44.413Z,79.00
2019-05-01T01:54:15.783Z,79.23
2019-05-01T01:56:47.292Z,79.63
2019-05-01T01:59:18.691Z,79.41
2019-05-01T02:01:54.354Z,79.35
2019-05-01T02:04:27.286Z,79.88
2019-05-01T02:06:58.681Z,79.90
2019-05-01T02:09:30.090Z,79.96
2019-05-01T02:12:00.920Z,79.82
2019-05-01T02:14:32.046Z,80.10
2019-05-01T02:17:02.847Z,80.40
2019-05-01T02:19:33.923Z,80.61
2019-05-01T02:22:06.434Z,80.43
2019-05-01T02:24:38.035Z,80.32
2019-05-01T02:27:10.974Z,80.56
2019-05-01T02:29:45.624Z,80.13
2019-05-01T02:32:16.996Z,79.94
2019-05-01T02:34:48.430Z,80.07
2019-05-01T02:37:20.227Z,80.21
2019-05-01T02:39:50.940Z,80.53
2019-05-01T02:42:22.166Z,80.93
2019-05-01T02:44:53.053Z,80.89
2019-05-01T02:47:26.459Z,81.55
2019-05-01T02:50:01.042Z,81.21
2019-05-01T02:52:34.354Z,80.83
2019-05-01T02:55:09.127Z,81.03
2019-05-01T02:57:40.500Z,81.35
2019-05-01T03:00:12.087Z,81.32
2019-05-01T03:02:43.442Z,81.31
2019-05-01T03:05:14.815Z,81.51
2019-05-01T03:07:46.270Z,81.43
2019-05-01T03:10:18.720Z,81.43
2019-05-01T03:12:50.069Z,81.19
2019-05-01T03:15:21.538Z,81.35
2019-05-01T03:17:54.545Z,81.06
2019-05-01T03:20:36.529Z,80.87
2019-05-01T03:23:18.367Z,81.04
2019-05-01T03:25:49.776Z,81.09
2019-05-01T03:28:21.788Z,81.33
2019-05-01T03:30:53.166Z,81.23
2019-05-01T03:33:26.228Z,81.16
2019-05-01T03:35:57.557Z,81.26
2019-05-01T03:38:28.960Z,81.32
2019-05-01T03:41:00.392Z,81.63
2019-05-01T03:43:32.073Z,81.76
2019-05-01T03:46:03.554Z,81.71
2019-05-01T03:48:34.939Z,81.73
2019-05-01T03:51:06.923Z,81.70
2019-05-01T03:53:38.341Z,81.81
2019-05-01T03:56:09.688Z,81.60
2019-05-01T03:58:41.137Z,81.57
2019-05-01T04:01:17.415Z,81.48
2019-05-01T04:03:50.456Z,81.48
2019-05-01T04:06:21.817Z,81.63
2019-05-01T04:08:53.353Z,81.42
2019-05-01T04:11:24.243Z,81.80
2019-05-01T04:13:55.379Z,81.79
2019-05-01T04:16:26.875Z,81.51
2019-05-01T04:18:57.685Z,81.82
2019-05-01T04:21:30.658Z,82.07
2019-05-01T04:24:02.021Z,81.62
2019-05-01T04:26:33.468Z,81.78
2019-05-01T04:29:06.551Z,81.91
2019-05-01T04:31:39.567Z,82.15
2019-05-01T04:34:15.455Z,81.85
2019-05-01T04:36:49.482Z,82.06
2019-05-01T04:39:20.863Z,82.19
2019-05-01T04:41:52.443Z,82.29
2019-05-01T04:44:23.317Z,82.45
2019-05-01T04:46:54.398Z,82.76
2019-05-01T04:49:25.909Z,82.45
2019-05-01T04:51:57.546Z,82.74
2019-05-01T04:54:29.945Z,82.70
2019-05-01T04:57:01.372Z,82.64
2019-05-01T04:59:35.795Z,82.34
2019-05-01T05:02:14.204Z,82.71
2019-05-01T05:04:59.388Z,82.26
2019-05-01T05:07:37.618Z,82.36
2019-05-01T05:10:35.645Z,82.21
2019-05-01T05:13:12.500Z,82.10
2019-05-01T05:22:06.244Z,81.70
2019-05-01T05:24:37.763Z,81.80
2019-05-01T05:27:09.203Z,81.80
2019-05-01T05:29:40.759Z,81.54
2019-05-01T05:32:12.195Z,81.32
2019-05-01T05:34:45.327Z,81.37
2019-05-01T05:37:22.614Z,81.34
2019-05-01T05:39:54.509Z,81.18
2019-05-01T05:42:26.095Z,81.17
2019-05-01T05:44:59.583Z,81.09
2019-05-01T05:47:34.110Z,80.99
2019-05-01T05:50:07.432Z,80.81
2019-05-01T05:52:40.487Z,80.48
2019-05-01T05:55:16.307Z,80.51
2019-05-01T05:57:58.324Z,80.45
2019-05-01T06:00:41.380Z,80.29
2019-05-01T06:03:33.359Z,80.24
2019-05-01T06:06:14.636Z,80.08
2019-05-01T06:16:52.196Z,79.88
2019-05-01T06:39:42.998Z,78.96
2019-05-01T06:42:21.928Z,78.83
2019-05-01T06:45:22.758Z,78.58
2019-05-01T06:47:57.575Z,78.43
2019-05-01T06:50:57.471Z,78.25
2019-05-01T07:20:06.317Z,75.25
2019-05-01T07:28:19.976Z,74.72
2019-05-01T07:31:09.401Z,74.25
2019-05-01T07:34:25.837Z,73.65
2019-05-01T07:37:05.380Z,73.65
2019-05-01T07:39:36.771Z,73.18
2019-05-01T07:42:25.670Z,73.17
2019-05-01T07:45:15.610Z,72.72
2019-05-01T07:47:48.700Z,72.70
2019-05-01T07:50:24.227Z,72.62
2019-05-01T07:52:53.991Z,72.42
2019-05-01T07:55:37.429Z,72.36
2019-05-01T07:58:15.979Z,72.31
2019-05-01T08:00:57.979Z,71.84
2019-05-01T08:03:29.405Z,72.03
2019-05-01T08:06:00.779Z,71.98
2019-05-01T08:08:33.634Z,71.75
2019-05-01T08:11:09.883Z,71.41
2019-05-01T08:13:38.143Z,71.45
2019-05-01T08:16:09.576Z,71.21
2019-05-01T08:18:41.850Z,71.05
2019-05-01T08:21:21.114Z,70.87
2019-05-01T08:23:53.803Z,70.35
2019-05-01T08:26:25.253Z,69.42
2019-05-01T08:29:09.507Z,69.37
2019-05-01T08:31:54.055Z,69.67
2019-05-01T08:34:29.664Z,69.06
2019-05-01T08:37:00.266Z,69.08
2019-05-01T08:39:32.833Z,68.84
2019-05-01T08:42:06.991Z,68.57
2019-05-01T08:44:59.968Z,67.87
2019-05-01T08:47:34.247Z,68.08
2019-05-01T08:50:14.437Z,67.96
2019-05-01T08:52:47.359Z,67.98
2019-05-01T08:55:20.036Z,67.42
2019-05-01T09:05:27.638Z,67.84
2019-05-01T09:07:46.817Z,67.49
2019-05-01T09:17:14.493Z,66.85
2019-05-01T09:23:39.780Z,64.87
2019-05-01T09:33:04.686Z,63.88
2019-05-01T09:35:40.439Z,63.05
2019-05-01T09:38:13.266Z,62.88
2019-05-01T09:40:48.779Z,62.62
2019-05-01T09:43:26.031Z,62.22
2019-05-01T09:45:59.092Z,62.01
2019-05-01T09:48:32.132Z,61.32
2019-05-01T09:51:05.465Z,61.37
2019-05-01T09:53:41.059Z,61.68
2019-05-01T09:56:14.102Z,61.88
2019-05-01T09:58:45.439Z,61.85
2019-05-01T10:01:16.829Z,61.69
2019-05-01T10:03:49.454Z,61.78
2019-05-01T10:06:21.397Z,61.27
2019-05-01T10:08:52.797Z,61.29
2019-05-01T10:11:24.243Z,61.20
2019-05-01T10:13:58.542Z,60.58
2019-05-01T10:16:27.868Z,60.04
2019-05-01T10:18:58.706Z,59.58
2019-05-01T10:21:29.823Z,59.77
2019-05-01T10:24:01.333Z,58.66
2019-05-01T10:26:33.677Z,58.37
2019-05-01T10:29:09.105Z,59.00
2019-05-01T10:32:00.261Z,58.08
2019-05-01T10:34:33.199Z,57.80
2019-05-01T10:37:04.612Z,57.33
2019-05-01T10:39:37.611Z,57.05
2019-05-01T10:42:09.012Z,56.94
2019-05-01T10:44:39.755Z,56.54
2019-05-01T10:47:10.866Z,56.21
2019-05-01T10:49:41.703Z,57.35
2019-05-01T10:52:14.269Z,56.97
2019-05-01T10:54:49.446Z,57.28
2019-05-01T10:57:22.545Z,56.90
2019-05-01T10:59:54.023Z,56.49
2019-05-01T11:02:24.827Z,55.94
2019-05-01T11:04:55.930Z,56.81
2019-05-01T11:07:27.346Z,56.70
2019-05-01T11:09:58.123Z,57.13
2019-05-01T11:12:29.226Z,57.22
2019-05-01T11:15:00.660Z,56.80
2019-05-01T11:17:33.153Z,56.90
2019-05-01T11:20:06.677Z,56.93
2019-05-01T11:22:38.226Z,57.00
2019-05-01T11:25:09.145Z,57.17
2019-05-01T11:27:40.194Z,57.25
2019-05-01T11:30:11.574Z,57.02
2019-05-01T11:32:43.997Z,56.88
2019-05-01T11:35:32.895Z,57.51
2019-05-01T11:38:23.095Z,57.42
2019-05-01T11:40:55.975Z,56.70
2019-05-01T11:43:27.268Z,56.79
2019-05-01T11:45:58.567Z,56.11
2019-05-01T11:48:31.746Z,55.67
2019-05-01T11:51:03.126Z,56.07
2019-05-01T11:53:34.528Z,56.21
2019-05-01T11:56:05.266Z,56.27
2019-05-01T11:58:36.361Z,56.32
2019-05-01T12:01:10.995Z,55.38
2019-05-01T12:03:42.626Z,55.27
2019-05-01T12:06:22.741Z,54.32
2019-05-01T12:08:47.477Z,54.94
2019-05-01T12:11:19.782Z,54.86
2019-05-01T12:13:50.959Z,54.07
2019-05-01T12:16:23.830Z,54.28
2019-05-01T12:18:55.248Z,54.73
2019-05-01T12:21:26.079Z,54.89
2019-05-01T12:23:57.149Z,53.04
2019-05-01T12:26:29.401Z,51.74
2019-05-01T12:29:00.702Z,50.63
2019-05-01T12:31:31.874Z,50.81
2019-05-01T12:34:03.255Z,49.34
2019-05-01T12:36:36.348Z,47.66
2019-05-01T12:39:10.757Z,47.20
2019-05-01T12:41:47.600Z,46.73
2019-05-01T12:44:21.492Z,47.13
2019-05-01T12:46:54.414Z,46.25
2019-05-01T12:49:25.592Z,45.94
2019-05-01T12:52:09.856Z,46.17
2019-05-01T12:54:33.061Z,46.17
2019-05-01T12:57:04.423Z,46.47
2019-05-01T12:59:35.657Z,45.55
2019-05-01T13:02:07.116Z,44.72
2019-05-01T13:04:38.411Z,44.87
2019-05-01T13:07:09.136Z,44.76
2019-05-01T13:09:40.212Z,44.39
2019-05-01T13:12:11.046Z,42.99
2019-05-01T13:14:42.169Z,42.72
2019-05-01T13:17:13.696Z,42.25
2019-05-01T13:19:45.027Z,40.79
2019-05-01T13:22:16.365Z,41.19
2019-05-01T13:24:50.028Z,41.18
2019-05-01T13:27:22.815Z,41.03
2019-05-01T13:29:56.018Z,41.33
2019-05-01T13:32:28.812Z,40.90
2019-05-01T13:35:00.181Z,41.08
2019-05-01T13:37:31.351Z,41.16
2019-05-01T13:40:02.631Z,40.15
2019-05-01T13:42:33.916Z,40.06
2019-05-01T13:45:07.314Z,40.14
2019-05-01T13:47:38.778Z,39.96
2019-05-01T13:50:12.434Z,38.80
2019-05-01T13:52:43.938Z,39.02
2019-05-01T13:55:16.143Z,39.54
2019-05-01T13:57:48.523Z,39.71
2019-05-01T14:00:19.948Z,40.13
2019-05-01T14:02:51.443Z,40.64
2019-05-01T14:05:23.149Z,40.62
2019-05-01T14:07:54.226Z,40.55
2019-05-01T14:10:25.439Z,39.98
2019-05-01T14:12:56.078Z,40.27
2019-05-01T14:15:28.752Z,40.60
2019-05-01T14:17:59.985Z,40.27
2019-05-01T14:20:50.955Z,40.15
2019-05-01T14:23:23.869Z,39.62
2019-05-01T14:26:08.431Z,39.40
2019-05-01T14:28:39.650Z,39.75
2019-05-01T14:31:11.020Z,39.48
2019-05-01T14:33:41.760Z,40.66
2019-05-01T14:36:12.888Z,41.05
2019-05-01T14:38:44.169Z,40.70
2019-05-01T14:41:15.456Z,40.73
2019-05-01T14:43:46.763Z,40.74
2019-05-01T14:46:17.990Z,40.79
2019-05-01T14:48:49.395Z,41.08
2019-05-01T14:51:21.760Z,41.24
2019-05-01T14:53:54.432Z,41.10
2019-05-01T14:56:28.440Z,41.58
2019-05-01T14:58:59.323Z,41.43
2019-05-01T15:01:31.026Z,41.79
2019-05-01T15:04:04.842Z,41.63
2019-05-01T15:06:35.424Z,41.80
2019-05-01T15:09:08.907Z,42.46
2019-05-01T15:11:44.548Z,42.12
2019-05-01T15:14:33.852Z,41.96
2019-05-01T15:17:12.548Z,42.05
2019-05-01T15:19:45.674Z,41.85
2019-05-01T15:22:17.082Z,41.69
2019-05-01T15:24:47.810Z,41.80
2019-05-01T15:27:18.912Z,42.14
2019-05-01T15:29:51.248Z,41.89
2019-05-01T15:32:22.166Z,41.50
2019-05-01T15:34:53.332Z,41.64
2019-05-01T15:37:24.787Z,41.20
2019-05-01T15:39:56.990Z,40.37
2019-05-01T15:42:36.052Z,41.17
2019-05-01T15:45:07.450Z,41.68
2019-05-01T15:47:38.762Z,42.10
2019-05-01T15:50:09.997Z,42.56
2019-05-01T15:52:41.347Z,42.68
2019-05-01T15:55:13.217Z,43.47
2019-05-01T15:57:44.576Z,43.67
2019-05-01T16:00:17.439Z,43.53
2019-05-01T16:02:48.791Z,44.10
2019-05-01T16:05:19.963Z,44.39
2019-05-01T16:07:52.376Z,44.88
2019-05-01T16:10:25.303Z,44.99
2019-05-01T16:12:58.159Z,44.84
2019-05-01T16:15:33.577Z,44.93
2019-05-01T16:18:06.207Z,44.88
2019-05-01T16:20:37.377Z,45.09
2019-05-01T16:23:09.339Z,45.33
2019-05-01T16:25:40.808Z,45.50
2019-05-01T16:28:12.173Z,45.57
2019-05-01T16:30:43.459Z,45.69
2019-05-01T16:33:15.743Z,45.77
2019-05-01T16:35:47.033Z,46.74
2019-05-01T16:38:23.471Z,47.98
2019-05-01T16:40:57.579Z,48.76
2019-05-01T16:43:28.922Z,50.20
2019-05-01T16:46:00.218Z,51.32
2019-05-01T16:48:31.571Z,51.22
2019-05-01T16:51:02.832Z,51.63
2019-05-01T16:53:34.243Z,52.05
2019-05-01T16:56:05.668Z,53.06
2019-05-01T16:58:37.010Z,53.46
2019-05-01T17:01:09.317Z,54.17
2019-05-01T17:03:57.172Z,54.92
2019-05-01T17:06:35.603Z,55.14
2019-05-01T17:09:26.137Z,55.69
2019-05-01T17:11:59.005Z,56.02
2019-05-01T17:14:30.814Z,56.33
2019-05-01T17:17:02.323Z,56.71
2019-05-01T17:19:32.943Z,56.86
2019-05-01T17:22:09.296Z,55.47
2019-05-01T17:24:38.558Z,54.71
2019-05-01T17:27:09.849Z,53.53
2019-05-01T17:29:41.133Z,51.71
2019-05-01T17:32:13.874Z,50.68
2019-05-01T17:34:45.172Z,50.00
2019-05-01T17:37:16.509Z,49.53
2019-05-01T17:39:48.083Z,48.31
2019-05-01T17:42:19.296Z,47.94
2019-05-01T17:44:50.661Z,47.47
2019-05-01T17:47:22.432Z,47.25
2019-05-01T17:49:54.882Z,47.02
2019-05-01T17:52:26.115Z,46.92
2019-05-01T17:54:57.269Z,46.69
2019-05-01T17:57:28.539Z,46.36
2019-05-01T18:00:01.261Z,45.74
2019-05-01T18:02:37.213Z,45.78
2019-05-01T18:05:10.132Z,45.65
2019-05-01T18:07:41.372Z,45.00
2019-05-01T18:10:12.615Z,44.79
2019-05-01T18:12:43.846Z,45.04
2019-05-01T18:15:15.112Z,44.93
2019-05-01T18:17:46.362Z,45.26
2019-05-01T18:20:17.591Z,44.97
2019-05-01T18:22:57.727Z,44.97
2019-05-01T18:25:34.917Z,44.99
2019-05-01T18:28:13.817Z,44.98
2019-05-01T18:30:45.560Z,45.21
2019-05-01T18:33:16.802Z,45.22
2019-05-01T18:35:49.238Z,45.11
2019-05-01T18:38:34.160Z,45.28
2019-05-01T18:41:09.979Z,45.42
2019-05-01T18:43:41.271Z,45.43
2019-05-01T18:46:12.654Z,45.58
2019-05-01T18:48:44.107Z,45.78
2019-05-01T18:51:16.547Z,45.48
2019-05-01T18:53:50.585Z,45.68
2019-05-01T18:56:21.806Z,45.67
2019-05-01T18:58:53.094Z,45.67
2019-05-01T19:01:24.318Z,45.71
2019-05-01T19:03:56.315Z,45.47
2019-05-01T19:06:40.143Z,45.75
2019-05-01T19:09:13.980Z,45.77
2019-05-01T19:11:37.474Z,45.65
2019-05-01T19:14:09.419Z,45.93
2019-05-01T19:16:45.401Z,46.05
2019-05-01T19:19:13.643Z,46.12
2019-05-01T19:21:46.533Z,46.16
2019-05-01T19:24:17.801Z,46.37
2019-05-01T19:26:49.063Z,46.51
2019-05-01T19:29:21.419Z,46.54
2019-05-01T19:31:53.494Z,46.44
2019-05-01T19:34:26.284Z,46.56
2019-05-01T19:36:59.219Z,46.79
2019-05-01T19:39:42.987Z,46.95
2019-05-01T19:42:03.491Z,47.38
2019-05-01T19:44:34.831Z,47.61
2019-05-01T19:47:07.808Z,48.41
2019-05-01T19:49:39.045Z,49.02
2019-05-01T19:52:10.324Z,50.20
2019-05-01T19:54:41.609Z,50.20
2019-05-01T19:57:12.788Z,50.73
2019-05-01T19:59:44.134Z,51.02
2019-05-01T20:02:20.173Z,51.21
2019-05-01T20:04:50.415Z,51.59
2019-05-01T20:07:22.772Z,52.04
2019-05-01T20:09:56.975Z,52.47
2019-05-01T20:12:29.676Z,52.99
2019-05-01T20:15:00.157Z,53.07
2019-05-01T20:17:31.557Z,52.93
2019-05-01T20:20:02.763Z,53.17
2019-05-01T20:22:34.490Z,53.36
2019-05-01T20:25:06.173Z,53.13
2019-05-01T20:27:39.536Z,53.46
2019-05-01T20:30:10.546Z,53.55
2019-05-01T20:32:41.796Z,53.33
2019-05-01T20:35:13.006Z,53.63
2019-05-01T20:37:44.305Z,53.79
2019-05-01T20:40:15.508Z,53.87
2019-05-01T20:42:46.924Z,53.85
2019-05-01T20:45:19.681Z,54.09
2019-05-01T20:47:54.147Z,54.41
2019-05-01T20:50:23.941Z,54.33
2019-05-01T20:52:55.258Z,54.49
2019-05-01T20:55:26.428Z,54.55
2019-05-01T20:58:17.266Z,54.59
2019-05-01T21:00:53.590Z,54.62
2019-05-01T21:03:24.614Z,54.79
2019-05-01T21:06:12.695Z,54.54
2019-05-01T21:08:48.237Z,54.48
2019-05-01T21:11:24.168Z,54.63
2019-05-01T21:14:14.771Z,54.62
2019-05-01T21:16:32.958Z,54.55
2019-05-01T21:19:03.689Z,54.41
2019-05-01T21:21:35.547Z,54.43
2019-05-01T21:24:06.837Z,54.56
2019-05-01T21:26:38.531Z,54.60
2019-05-01T21:29:09.789Z,54.44
2019-05-01T21:31:41.048Z,54.43
2019-05-01T21:34:14.362Z,54.36
2019-05-01T21:36:47.472Z,54.12
2019-05-01T21:39:22.160Z,53.83
2019-05-01T21:41:53.368Z,53.46
2019-05-01T21:44:24.779Z,53.39
2019-05-01T21:46:56.039Z,52.98
2019-05-01T21:49:28.871Z,52.86
2019-05-01T21:52:00.165Z,52.74
2019-05-01T21:54:31.633Z,52.59
2019-05-01T21:57:02.881Z,52.45
2019-05-01T21:59:35.303Z,52.53
2019-05-01T22:02:10.127Z,52.41
2019-05-01T22:04:39.587Z,52.29
2019-05-01T22:07:11.042Z,52.40
2019-05-01T22:09:45.773Z,52.37
2019-05-01T22:12:15.311Z,52.49
2019-05-01T22:14:50.976Z,52.76
2019-05-01T22:17:33.493Z,52.90
2019-05-01T22:20:06.320Z,53.05
2019-05-01T22:22:43.910Z,52.98
2019-05-01T22:25:13.562Z,53.17
2019-05-01T22:27:46.390Z,53.60
2019-05-01T22:30:28.129Z,53.70
2019-05-01T22:32:59.944Z,53.67
2019-05-01T22:35:32.564Z,53.89
2019-05-01T22:38:05.294Z,53.76
2019-05-01T22:40:50.371Z,53.80
2019-05-01T22:43:21.702Z,53.77
2019-05-01T22:45:56.186Z,53.72
2019-05-01T22:48:25.837Z,53.86
2019-05-01T22:50:58.625Z,53.99
2019-05-01T22:53:30.835Z,53.91
2019-05-01T22:56:03.909Z,53.74
2019-05-01T22:58:35.013Z,53.83
2019-05-01T23:01:07.272Z,53.79
2019-05-01T23:03:52.024Z,54.03
2019-05-01T23:06:23.268Z,54.13
2019-05-01T23:08:54.527Z,54.19
2019-05-01T23:11:27.361Z,54.46
2019-05-01T23:13:58.563Z,54.46
2019-05-01T23:16:31.424Z,54.67
2019-05-01T23:19:02.675Z,54.58
2019-05-01T23:21:33.986Z,54.89
2019-05-01T23:24:06.095Z,54.86
2019-05-01T23:26:37.355Z,54.79
2019-05-01T23:29:08.570Z,55.08
2019-05-01T23:31:39.871Z,55.17
2019-05-01T23:34:11.174Z,55.50
2019-05-01T23:36:42.450Z,55.68
2019-05-01T23:39:14.789Z,55.85
2019-05-01T23:41:47.113Z,56.21
2019-05-01T23:44:18.531Z,56.24
2019-05-01T23:46:49.805Z,56.47
2019-05-01T23:49:21.053Z,56.39
2019-05-01T23:51:52.246Z,56.56
2019-05-01T23:54:24.576Z,56.70
2019-05-01T23:56:55.851Z,56.97
2019-05-01T23:59:27.076Z,57.08
